SWA4052 KBWI-KRSW
Flight info
| Callsign | SWA4052 |
|---|---|
| Flight time | 2h 7m |
| Altitude | 36000 |
| Route | TERPZ8 RRSIN GSO Q75 SLOJO Q103 CYNTA SHFTY6 |
| Aircraft | B737/M-SDE2E3FGHIRWXY/LB1 |
Departure
| Time | 2026-04-30 00:40 |
|---|---|
| Airport | Baltimore/Washington International Thurgood Marshall Airport (KBWI) |
Arrival
| Time | 2026-04-30 02:47 |
|---|---|
| Airport | Southwest Florida International Airport (KRSW) |
| Time | Latitude | Longitude | Altitude | Speed | Heading |
|---|---|---|---|---|---|
| 2026-04-30 00:09 | 39.17973 | -76.67286 | 154 ft | 0 kts | 53° |
| 2026-04-30 00:32 | 39.17966 | -76.67298 | 154 ft | 2 kts | 53° |
| 2026-04-30 00:32 | 39.17956 | -76.67315 | 154 ft | 2 kts | 53° |
| 2026-04-30 00:33 | 39.17946 | -76.67331 | 154 ft | 2 kts | 42° |
| 2026-04-30 00:33 | 39.17934 | -76.67338 | 154 ft | 1 kts | 346° |
| 2026-04-30 00:33 | 39.17930 | -76.67336 | 154 ft | 0 kts | 340° |
| 2026-04-30 00:35 | 39.17934 | -76.67339 | 154 ft | 5 kts | 334° |
| 2026-04-30 00:35 | 39.18001 | -76.67418 | 154 ft | 15 kts | 323° |
| 2026-04-30 00:36 | 39.18069 | -76.67482 | 154 ft | 9 kts | 323° |
| 2026-04-30 00:36 | 39.18143 | -76.67553 | 154 ft | 16 kts | 323° |
| 2026-04-30 00:36 | 39.18190 | -76.67635 | 154 ft | 8 kts | 266° |
| 2026-04-30 00:36 | 39.18203 | -76.67691 | 154 ft | 12 kts | 302° |
| 2026-04-30 00:37 | 39.18303 | -76.67802 | 154 ft | 21 kts | 324° |
| 2026-04-30 00:37 | 39.18404 | -76.67892 | 154 ft | 15 kts | 326° |
| 2026-04-30 00:37 | 39.18491 | -76.67970 | 154 ft | 18 kts | 321° |
| 2026-04-30 00:37 | 39.18558 | -76.68050 | 154 ft | 9 kts | 304° |
| 2026-04-30 00:38 | 39.18565 | -76.68066 | 154 ft | 0 kts | 297° |
| 2026-04-30 00:39 | 39.18566 | -76.68070 | 154 ft | 5 kts | 294° |
| 2026-04-30 00:39 | 39.18527 | -76.68172 | 154 ft | 14 kts | 190° |
| 2026-04-30 00:39 | 39.18462 | -76.68123 | 154 ft | 13 kts | 140° |
| 2026-04-30 00:39 | 39.18196 | -76.67873 | 154 ft | 84 kts | 144° |
| 2026-04-30 00:40 | 39.17798 | -76.67508 | 154 ft | 127 kts | 143° |
| 2026-04-30 00:40 | 39.16962 | -76.66753 | 486 ft | 154 kts | 146° |
| 2026-04-30 00:40 | 39.15677 | -76.65692 | 1281 ft | 181 kts | 147° |
| 2026-04-30 00:40 | 39.14552 | -76.64718 | 1710 ft | 208 kts | 150° |
| 2026-04-30 00:41 | 39.13624 | -76.64308 | 2023 ft | 219 kts | 170° |
| 2026-04-30 00:41 | 39.12112 | -76.64569 | 2734 ft | 223 kts | 200° |
| 2026-04-30 00:41 | 39.10892 | -76.65804 | 3500 ft | 230 kts | 229° |
| 2026-04-30 00:41 | 39.10377 | -76.67766 | 4104 ft | 241 kts | 264° |
| 2026-04-30 00:42 | 39.10843 | -76.69887 | 4203 ft | 257 kts | 298° |
| 2026-04-30 00:42 | 39.12214 | -76.71385 | 4140 ft | 264 kts | 331° |
| 2026-04-30 00:42 | 39.13916 | -76.72263 | 4117 ft | 262 kts | 331° |
| 2026-04-30 00:42 | 39.15434 | -76.73509 | 4076 ft | 259 kts | 323° |
| 2026-04-30 00:43 | 39.16996 | -76.74718 | 4084 ft | 263 kts | 327° |
| 2026-04-30 00:43 | 39.18392 | -76.76154 | 4611 ft | 256 kts | 307° |
| 2026-04-30 00:43 | 39.19225 | -76.78103 | 5601 ft | 240 kts | 288° |
| 2026-04-30 00:43 | 39.19683 | -76.80165 | 6455 ft | 238 kts | 278° |
| 2026-04-30 00:44 | 39.19851 | -76.82267 | 7221 ft | 240 kts | 272° |
| 2026-04-30 00:44 | 39.20092 | -76.84413 | 8008 ft | 243 kts | 278° |
| 2026-04-30 00:44 | 39.20440 | -76.86552 | 8762 ft | 245 kts | 280° |
| 2026-04-30 00:44 | 39.20794 | -76.88759 | 9352 ft | 259 kts | 279° |
| 2026-04-30 00:45 | 39.21142 | -76.91100 | 10014 ft | 270 kts | 279° |
| 2026-04-30 00:45 | 39.21609 | -76.94315 | 11145 ft | 277 kts | 278° |
| 2026-04-30 00:45 | 39.21842 | -76.95968 | 11504 ft | 288 kts | 277° |
| 2026-04-30 00:45 | 39.22051 | -76.98631 | 11930 ft | 307 kts | 271° |
| 2026-04-30 00:46 | 39.22105 | -77.01469 | 12332 ft | 325 kts | 269° |
| 2026-04-30 00:46 | 39.22121 | -77.04420 | 12980 ft | 333 kts | 270° |
| 2026-04-30 00:46 | 39.22155 | -77.07433 | 13818 ft | 337 kts | 270° |
| 2026-04-30 00:46 | 39.22112 | -77.10468 | 14685 ft | 340 kts | 262° |
| 2026-04-30 00:47 | 39.21401 | -77.13382 | 15582 ft | 344 kts | 243° |
| 2026-04-30 00:47 | 39.19948 | -77.15816 | 16459 ft | 352 kts | 226° |
| 2026-04-30 00:47 | 39.17948 | -77.17709 | 17276 ft | 362 kts | 214° |
| 2026-04-30 00:47 | 39.15749 | -77.19327 | 18066 ft | 366 kts | 215° |
| 2026-04-30 00:48 | 39.13590 | -77.21086 | 18848 ft | 369 kts | 217° |
| 2026-04-30 00:48 | 39.11418 | -77.22884 | 19585 ft | 373 kts | 217° |
| 2026-04-30 00:48 | 39.09215 | -77.24710 | 20313 ft | 378 kts | 217° |
| 2026-04-30 00:48 | 39.06943 | -77.26458 | 21010 ft | 383 kts | 214° |
| 2026-04-30 00:49 | 39.04583 | -77.28101 | 21675 ft | 388 kts | 213° |
| 2026-04-30 00:49 | 39.02175 | -77.29728 | 22296 ft | 393 kts | 213° |
| 2026-04-30 00:49 | 38.99761 | -77.31396 | 22924 ft | 396 kts | 214° |
| 2026-04-30 00:49 | 38.97325 | -77.33094 | 23524 ft | 399 kts | 214° |
| 2026-04-30 00:50 | 38.94866 | -77.34808 | 24067 ft | 403 kts | 214° |
| 2026-04-30 00:50 | 38.92390 | -77.36532 | 24669 ft | 405 kts | 214° |
| 2026-04-30 00:50 | 38.89906 | -77.38261 | 25253 ft | 408 kts | 214° |
| 2026-04-30 00:50 | 38.87438 | -77.39977 | 25809 ft | 409 kts | 214° |
| 2026-04-30 00:51 | 38.84924 | -77.41724 | 26337 ft | 411 kts | 214° |
| 2026-04-30 00:51 | 38.82395 | -77.43480 | 26849 ft | 413 kts | 214° |
| 2026-04-30 00:51 | 38.79862 | -77.45239 | 27337 ft | 415 kts | 214° |
| 2026-04-30 00:51 | 38.77307 | -77.47011 | 27832 ft | 417 kts | 214° |
| 2026-04-30 00:52 | 38.74716 | -77.48732 | 28273 ft | 421 kts | 211° |
| 2026-04-30 00:52 | 38.72025 | -77.50150 | 28725 ft | 427 kts | 206° |
| 2026-04-30 00:52 | 38.69182 | -77.51312 | 29172 ft | 430 kts | 203° |
| 2026-04-30 00:52 | 38.66296 | -77.52342 | 29781 ft | 428 kts | 202° |
| 2026-04-30 00:53 | 38.63439 | -77.53330 | 30438 ft | 423 kts | 202° |
| 2026-04-30 00:53 | 38.60605 | -77.54318 | 30942 ft | 422 kts | 203° |
| 2026-04-30 00:53 | 38.57776 | -77.55314 | 31409 ft | 421 kts | 203° |
| 2026-04-30 00:53 | 38.54953 | -77.56304 | 31902 ft | 420 kts | 204° |
| 2026-04-30 00:54 | 38.52140 | -77.57287 | 32383 ft | 418 kts | 204° |
| 2026-04-30 00:54 | 38.49340 | -77.58264 | 32904 ft | 415 kts | 204° |
| 2026-04-30 00:54 | 38.46549 | -77.59236 | 33313 ft | 415 kts | 205° |
| 2026-04-30 00:54 | 38.43765 | -77.60204 | 33697 ft | 415 kts | 205° |
| 2026-04-30 00:55 | 38.40988 | -77.61170 | 34160 ft | 412 kts | 205° |
| 2026-04-30 00:55 | 38.38222 | -77.62132 | 34536 ft | 412 kts | 205° |
| 2026-04-30 00:55 | 38.32732 | -77.64166 | 35226 ft | 404 kts | 211° |
| 2026-04-30 00:56 | 38.30260 | -77.65666 | 35536 ft | 394 kts | 219° |
| 2026-04-30 00:56 | 38.27991 | -77.67569 | 35787 ft | 391 kts | 224° |
| 2026-04-30 00:56 | 38.23661 | -77.71850 | 35831 ft | 397 kts | 227° |
| 2026-04-30 00:57 | 38.19401 | -77.76378 | 35841 ft | 398 kts | 227° |
| 2026-04-30 00:57 | 38.15163 | -77.80893 | 35847 ft | 396 kts | 227° |
| 2026-04-30 00:58 | 38.10939 | -77.85394 | 35851 ft | 397 kts | 227° |
| 2026-04-30 00:58 | 38.06728 | -77.89877 | 35855 ft | 397 kts | 227° |
| 2026-04-30 00:59 | 38.02494 | -77.94382 | 35859 ft | 397 kts | 227° |
| 2026-04-30 00:59 | 37.98256 | -77.98873 | 35860 ft | 397 kts | 227° |
| 2026-04-30 01:00 | 37.94011 | -78.03365 | 35858 ft | 397 kts | 227° |
| 2026-04-30 01:00 | 37.89766 | -78.07851 | 35856 ft | 397 kts | 227° |
| 2026-04-30 01:01 | 37.85517 | -78.12334 | 35852 ft | 397 kts | 227° |
| 2026-04-30 01:01 | 37.81272 | -78.16809 | 35849 ft | 397 kts | 227° |
| 2026-04-30 01:02 | 37.77030 | -78.21293 | 35845 ft | 397 kts | 228° |
| 2026-04-30 01:02 | 37.72830 | -78.25747 | 35844 ft | 397 kts | 228° |
| 2026-04-30 01:03 | 37.68595 | -78.30243 | 35843 ft | 398 kts | 228° |
| 2026-04-30 01:03 | 37.64336 | -78.34723 | 35842 ft | 398 kts | 227° |
| 2026-04-30 01:04 | 37.60060 | -78.39197 | 35842 ft | 400 kts | 227° |
| 2026-04-30 01:04 | 37.55781 | -78.43665 | 35841 ft | 399 kts | 227° |
| 2026-04-30 01:05 | 37.51521 | -78.48108 | 35842 ft | 399 kts | 227° |
| 2026-04-30 01:05 | 37.47229 | -78.52581 | 35842 ft | 400 kts | 228° |
| 2026-04-30 01:06 | 37.42921 | -78.57035 | 35842 ft | 400 kts | 227° |
| 2026-04-30 01:06 | 37.38609 | -78.61470 | 35843 ft | 400 kts | 227° |
| 2026-04-30 01:07 | 37.34293 | -78.65903 | 35844 ft | 400 kts | 227° |
| 2026-04-30 01:07 | 37.29997 | -78.70311 | 35845 ft | 401 kts | 227° |
| 2026-04-30 01:08 | 37.25663 | -78.74753 | 35847 ft | 403 kts | 227° |
| 2026-04-30 01:08 | 37.21321 | -78.79198 | 35849 ft | 402 kts | 227° |
| 2026-04-30 01:09 | 37.17012 | -78.83671 | 35850 ft | 402 kts | 228° |
| 2026-04-30 01:09 | 37.12672 | -78.88130 | 35851 ft | 402 kts | 227° |
| 2026-04-30 01:10 | 37.08328 | -78.92559 | 35851 ft | 403 kts | 227° |
| 2026-04-30 01:10 | 37.03979 | -78.96982 | 35851 ft | 403 kts | 228° |
| 2026-04-30 01:11 | 36.99643 | -79.01388 | 35851 ft | 404 kts | 228° |
| 2026-04-30 01:11 | 36.95280 | -79.05818 | 35850 ft | 404 kts | 228° |
| 2026-04-30 01:12 | 36.90927 | -79.10276 | 35849 ft | 405 kts | 228° |
| 2026-04-30 01:12 | 36.86573 | -79.14730 | 35850 ft | 404 kts | 228° |
| 2026-04-30 01:13 | 36.82219 | -79.19176 | 35849 ft | 404 kts | 228° |
| 2026-04-30 01:13 | 36.77859 | -79.23621 | 35850 ft | 405 kts | 228° |
| 2026-04-30 01:14 | 36.73521 | -79.28037 | 35847 ft | 405 kts | 228° |
| 2026-04-30 01:14 | 36.69153 | -79.32477 | 35844 ft | 405 kts | 228° |
| 2026-04-30 01:15 | 36.64799 | -79.36946 | 35842 ft | 405 kts | 229° |
| 2026-04-30 01:15 | 36.60442 | -79.41394 | 35842 ft | 405 kts | 228° |
| 2026-04-30 01:16 | 36.56065 | -79.45844 | 35843 ft | 407 kts | 229° |
| 2026-04-30 01:16 | 36.51685 | -79.50287 | 35846 ft | 406 kts | 229° |
| 2026-04-30 01:17 | 36.47304 | -79.54721 | 35852 ft | 407 kts | 229° |
| 2026-04-30 01:17 | 36.42908 | -79.59163 | 35857 ft | 407 kts | 229° |
| 2026-04-30 01:18 | 36.38509 | -79.63602 | 35851 ft | 408 kts | 229° |
| 2026-04-30 01:18 | 36.34132 | -79.68011 | 35852 ft | 408 kts | 229° |
| 2026-04-30 01:19 | 36.29722 | -79.72450 | 35851 ft | 407 kts | 229° |
| 2026-04-30 01:19 | 36.25331 | -79.76893 | 35849 ft | 408 kts | 229° |
| 2026-04-30 01:20 | 36.20911 | -79.81325 | 35846 ft | 409 kts | 229° |
| 2026-04-30 01:20 | 36.16483 | -79.85750 | 35843 ft | 409 kts | 229° |
| 2026-04-30 01:21 | 36.12022 | -79.90157 | 35827 ft | 409 kts | 229° |
| 2026-04-30 01:21 | 36.07612 | -79.94582 | 35837 ft | 410 kts | 227° |
| 2026-04-30 01:22 | 36.02704 | -79.98338 | 35842 ft | 426 kts | 217° |
| 2026-04-30 01:22 | 35.97206 | -80.01254 | 35846 ft | 432 kts | 213° |
| 2026-04-30 01:23 | 35.91622 | -80.04006 | 35850 ft | 432 kts | 213° |
| 2026-04-30 01:23 | 35.86028 | -80.06759 | 35854 ft | 432 kts | 213° |
| 2026-04-30 01:24 | 35.80431 | -80.09509 | 35856 ft | 432 kts | 213° |
| 2026-04-30 01:24 | 35.74880 | -80.12233 | 35858 ft | 432 kts | 213° |
| 2026-04-30 01:25 | 35.69291 | -80.14990 | 35860 ft | 432 kts | 213° |
| 2026-04-30 01:25 | 35.63697 | -80.17746 | 35861 ft | 434 kts | 213° |
| 2026-04-30 01:26 | 35.58091 | -80.20496 | 35870 ft | 433 kts | 213° |
| 2026-04-30 01:26 | 35.52513 | -80.23226 | 35878 ft | 433 kts | 213° |
| 2026-04-30 01:27 | 35.46909 | -80.25964 | 35884 ft | 434 kts | 213° |
| 2026-04-30 01:27 | 35.41292 | -80.28703 | 35884 ft | 435 kts | 213° |
| 2026-04-30 01:28 | 35.36609 | -80.30983 | 35880 ft | 435 kts | 213° |
| 2026-04-30 01:28 | 35.30974 | -80.33723 | 35873 ft | 435 kts | 213° |
| 2026-04-30 01:29 | 35.25340 | -80.36459 | 35869 ft | 437 kts | 213° |
| 2026-04-30 01:29 | 35.19680 | -80.39203 | 35863 ft | 437 kts | 213° |
| 2026-04-30 01:30 | 35.14023 | -80.41942 | 35856 ft | 437 kts | 213° |
| 2026-04-30 01:30 | 35.08393 | -80.44663 | 35850 ft | 437 kts | 213° |
| 2026-04-30 01:31 | 35.02720 | -80.47402 | 35846 ft | 439 kts | 213° |
| 2026-04-30 01:31 | 34.97037 | -80.50141 | 35843 ft | 439 kts | 213° |
| 2026-04-30 01:32 | 34.91360 | -80.52886 | 35844 ft | 440 kts | 213° |
| 2026-04-30 01:32 | 34.85654 | -80.55631 | 35849 ft | 441 kts | 213° |
| 2026-04-30 01:33 | 34.79946 | -80.58366 | 35855 ft | 441 kts | 213° |
| 2026-04-30 01:33 | 34.74209 | -80.61109 | 35863 ft | 443 kts | 213° |
| 2026-04-30 01:34 | 34.68508 | -80.63833 | 35870 ft | 443 kts | 213° |
| 2026-04-30 01:34 | 34.62736 | -80.66505 | 35874 ft | 447 kts | 210° |
| 2026-04-30 01:35 | 34.56724 | -80.68714 | 35876 ft | 453 kts | 208° |
| 2026-04-30 01:35 | 34.50691 | -80.70905 | 35876 ft | 452 kts | 208° |
| 2026-04-30 01:36 | 34.44682 | -80.73139 | 35877 ft | 451 kts | 208° |
| 2026-04-30 01:36 | 34.38708 | -80.75365 | 35878 ft | 452 kts | 208° |
| 2026-04-30 01:37 | 34.32690 | -80.77598 | 35879 ft | 453 kts | 208° |
| 2026-04-30 01:37 | 34.26657 | -80.79832 | 35878 ft | 453 kts | 208° |
| 2026-04-30 01:38 | 34.20625 | -80.82063 | 35873 ft | 453 kts | 208° |
| 2026-04-30 01:38 | 34.14593 | -80.84292 | 35870 ft | 453 kts | 208° |
| 2026-04-30 01:39 | 34.08552 | -80.86507 | 35867 ft | 453 kts | 208° |
| 2026-04-30 01:39 | 34.02518 | -80.88717 | 35866 ft | 453 kts | 208° |
| 2026-04-30 01:40 | 33.96516 | -80.90915 | 35867 ft | 456 kts | 208° |
| 2026-04-30 01:40 | 33.90395 | -80.93150 | 35868 ft | 460 kts | 208° |
| 2026-04-30 01:41 | 33.84267 | -80.95386 | 35867 ft | 459 kts | 208° |
| 2026-04-30 01:41 | 33.78155 | -80.97629 | 35869 ft | 459 kts | 208° |
| 2026-04-30 01:42 | 33.72032 | -80.99866 | 35872 ft | 459 kts | 208° |
| 2026-04-30 01:42 | 33.65919 | -81.02102 | 35882 ft | 459 kts | 208° |
| 2026-04-30 01:43 | 33.59792 | -81.04328 | 35890 ft | 460 kts | 208° |
| 2026-04-30 01:43 | 33.53647 | -81.06554 | 35894 ft | 462 kts | 208° |
| 2026-04-30 01:44 | 33.47500 | -81.08778 | 35896 ft | 461 kts | 208° |
| 2026-04-30 01:44 | 33.41393 | -81.10985 | 35902 ft | 461 kts | 208° |
| 2026-04-30 01:45 | 33.35233 | -81.13209 | 35907 ft | 462 kts | 207° |
| 2026-04-30 01:45 | 33.29067 | -81.15430 | 35910 ft | 463 kts | 207° |
| 2026-04-30 01:46 | 33.22891 | -81.17652 | 35911 ft | 463 kts | 207° |
| 2026-04-30 01:46 | 33.16712 | -81.19872 | 35912 ft | 463 kts | 207° |
| 2026-04-30 01:47 | 33.10526 | -81.22092 | 35912 ft | 465 kts | 207° |
| 2026-04-30 01:47 | 33.04323 | -81.24326 | 35914 ft | 465 kts | 207° |
| 2026-04-30 01:48 | 32.98164 | -81.26541 | 35915 ft | 465 kts | 207° |
| 2026-04-30 01:48 | 32.91947 | -81.28772 | 35918 ft | 467 kts | 207° |
| 2026-04-30 01:49 | 32.85726 | -81.31002 | 35923 ft | 467 kts | 207° |
| 2026-04-30 01:49 | 32.79493 | -81.33224 | 35926 ft | 469 kts | 207° |
| 2026-04-30 01:50 | 32.73238 | -81.35449 | 35927 ft | 469 kts | 206° |
| 2026-04-30 01:50 | 32.66980 | -81.37673 | 35928 ft | 470 kts | 206° |
| 2026-04-30 01:51 | 32.60704 | -81.39902 | 35925 ft | 470 kts | 206° |
| 2026-04-30 01:51 | 32.54431 | -81.42121 | 35924 ft | 470 kts | 206° |
| 2026-04-30 01:52 | 32.48145 | -81.44341 | 35923 ft | 472 kts | 206° |
| 2026-04-30 01:52 | 32.41897 | -81.46545 | 35928 ft | 472 kts | 206° |
| 2026-04-30 01:53 | 32.35594 | -81.48765 | 35920 ft | 472 kts | 206° |
| 2026-04-30 01:53 | 32.29277 | -81.50988 | 35919 ft | 473 kts | 206° |
| 2026-04-30 01:54 | 32.22963 | -81.53224 | 35920 ft | 473 kts | 206° |
| 2026-04-30 01:54 | 32.16646 | -81.55449 | 35919 ft | 473 kts | 206° |
| 2026-04-30 01:55 | 32.10370 | -81.57653 | 35916 ft | 473 kts | 206° |
| 2026-04-30 01:55 | 32.04058 | -81.59866 | 35913 ft | 473 kts | 206° |
| 2026-04-30 01:56 | 31.97735 | -81.62080 | 35909 ft | 474 kts | 206° |
| 2026-04-30 01:56 | 31.91378 | -81.64301 | 35905 ft | 476 kts | 205° |
| 2026-04-30 01:57 | 31.85021 | -81.66520 | 35904 ft | 476 kts | 205° |
| 2026-04-30 01:57 | 31.78674 | -81.68732 | 35908 ft | 476 kts | 205° |
| 2026-04-30 01:58 | 31.72311 | -81.70947 | 35916 ft | 476 kts | 205° |
| 2026-04-30 01:58 | 31.65956 | -81.73166 | 35926 ft | 476 kts | 205° |
| 2026-04-30 01:59 | 31.56466 | -81.76455 | 35941 ft | 477 kts | 205° |
| 2026-04-30 02:00 | 31.50087 | -81.78661 | 35947 ft | 477 kts | 205° |
| 2026-04-30 02:00 | 31.43712 | -81.80862 | 35946 ft | 477 kts | 205° |
| 2026-04-30 02:01 | 31.37337 | -81.83064 | 35944 ft | 479 kts | 205° |
| 2026-04-30 02:01 | 31.30947 | -81.85267 | 35942 ft | 478 kts | 205° |
| 2026-04-30 02:02 | 31.24542 | -81.87472 | 35941 ft | 480 kts | 204° |
| 2026-04-30 02:02 | 31.18138 | -81.89674 | 35951 ft | 481 kts | 204° |
| 2026-04-30 02:03 | 31.11714 | -81.91880 | 35956 ft | 481 kts | 204° |
| 2026-04-30 02:03 | 31.05312 | -81.94084 | 35956 ft | 482 kts | 204° |
| 2026-04-30 02:04 | 30.98862 | -81.96303 | 35956 ft | 483 kts | 204° |
| 2026-04-30 02:04 | 30.92395 | -81.98520 | 35955 ft | 484 kts | 204° |
| 2026-04-30 02:05 | 30.85921 | -82.00743 | 35956 ft | 485 kts | 204° |
| 2026-04-30 02:05 | 30.79430 | -82.02960 | 35957 ft | 486 kts | 204° |
| 2026-04-30 02:06 | 30.72927 | -82.05175 | 35961 ft | 488 kts | 203° |
| 2026-04-30 02:06 | 30.66409 | -82.07393 | 35964 ft | 488 kts | 203° |
| 2026-04-30 02:07 | 30.59831 | -82.09300 | 35965 ft | 496 kts | 195° |
| 2026-04-30 02:07 | 30.52906 | -82.10104 | 35966 ft | 502 kts | 189° |
| 2026-04-30 02:08 | 30.45946 | -82.10707 | 35963 ft | 501 kts | 190° |
| 2026-04-30 02:08 | 30.38992 | -82.11347 | 35963 ft | 501 kts | 190° |
| 2026-04-30 02:09 | 30.32027 | -82.11995 | 35966 ft | 502 kts | 190° |
| 2026-04-30 02:09 | 30.25051 | -82.12645 | 35969 ft | 502 kts | 189° |
| 2026-04-30 02:10 | 30.18037 | -82.12902 | 35974 ft | 507 kts | 182° |
| 2026-04-30 02:10 | 30.10995 | -82.11845 | 35984 ft | 513 kts | 173° |
| 2026-04-30 02:11 | 30.03973 | -82.10328 | 35988 ft | 513 kts | 173° |
| 2026-04-30 02:11 | 29.96991 | -82.08892 | 35991 ft | 513 kts | 173° |
| 2026-04-30 02:12 | 29.89967 | -82.07472 | 35991 ft | 513 kts | 174° |
| 2026-04-30 02:12 | 29.82934 | -82.06054 | 35990 ft | 513 kts | 173° |
| 2026-04-30 02:13 | 29.75909 | -82.04640 | 35992 ft | 512 kts | 173° |
| 2026-04-30 02:13 | 29.68891 | -82.03230 | 35997 ft | 512 kts | 173° |
| 2026-04-30 02:14 | 29.61863 | -82.01820 | 35993 ft | 512 kts | 173° |
| 2026-04-30 02:14 | 29.54834 | -82.00417 | 35996 ft | 512 kts | 173° |
| 2026-04-30 02:15 | 29.48997 | -81.99253 | 36002 ft | 511 kts | 173° |
| 2026-04-30 02:15 | 29.40854 | -81.97633 | 36014 ft | 511 kts | 173° |
| 2026-04-30 02:16 | 29.34993 | -81.96469 | 36016 ft | 510 kts | 173° |
| 2026-04-30 02:16 | 29.28004 | -81.95087 | 36016 ft | 510 kts | 173° |
| 2026-04-30 02:17 | 29.21013 | -81.93707 | 36018 ft | 509 kts | 173° |
| 2026-04-30 02:17 | 29.14034 | -81.92329 | 36016 ft | 509 kts | 173° |
| 2026-04-30 02:18 | 29.07099 | -81.90954 | 36015 ft | 508 kts | 173° |
| 2026-04-30 02:18 | 29.00132 | -81.89579 | 36014 ft | 508 kts | 173° |
| 2026-04-30 02:19 | 28.93167 | -81.88210 | 36012 ft | 508 kts | 173° |
| 2026-04-30 02:19 | 28.89662 | -81.87522 | 35871 ft | 509 kts | 173° |
| 2026-04-30 02:19 | 28.86189 | -81.86841 | 35296 ft | 505 kts | 173° |
| 2026-04-30 02:19 | 28.82708 | -81.86158 | 34280 ft | 509 kts | 173° |
| 2026-04-30 02:20 | 28.79212 | -81.85472 | 33401 ft | 510 kts | 173° |
| 2026-04-30 02:20 | 28.75732 | -81.84779 | 32746 ft | 505 kts | 173° |
| 2026-04-30 02:20 | 28.72279 | -81.84094 | 32110 ft | 500 kts | 173° |
| 2026-04-30 02:20 | 28.68869 | -81.83418 | 31487 ft | 495 kts | 173° |
| 2026-04-30 02:21 | 28.65489 | -81.82749 | 30867 ft | 491 kts | 173° |
| 2026-04-30 02:21 | 28.62137 | -81.82086 | 30259 ft | 486 kts | 173° |
| 2026-04-30 02:21 | 28.58818 | -81.81430 | 29652 ft | 482 kts | 173° |
| 2026-04-30 02:21 | 28.55540 | -81.80780 | 29325 ft | 472 kts | 173° |
| 2026-04-30 02:22 | 28.52345 | -81.80018 | 28916 ft | 468 kts | 169° |
| 2026-04-30 02:22 | 28.49193 | -81.79078 | 28397 ft | 466 kts | 168° |
| 2026-04-30 02:22 | 28.46051 | -81.78137 | 28034 ft | 467 kts | 168° |
| 2026-04-30 02:22 | 28.42948 | -81.77227 | 27691 ft | 467 kts | 168° |
| 2026-04-30 02:23 | 28.39801 | -81.76318 | 27348 ft | 465 kts | 168° |
| 2026-04-30 02:23 | 28.36636 | -81.75408 | 27005 ft | 462 kts | 168° |
| 2026-04-30 02:23 | 28.33568 | -81.74523 | 26672 ft | 459 kts | 168° |
| 2026-04-30 02:23 | 28.30478 | -81.73638 | 26338 ft | 456 kts | 168° |
| 2026-04-30 02:24 | 28.27404 | -81.72762 | 26007 ft | 454 kts | 168° |
| 2026-04-30 02:24 | 28.24354 | -81.71894 | 25679 ft | 451 kts | 168° |
| 2026-04-30 02:24 | 28.21316 | -81.71031 | 25354 ft | 449 kts | 168° |
| 2026-04-30 02:24 | 28.18293 | -81.70172 | 25030 ft | 446 kts | 168° |
| 2026-04-30 02:25 | 28.15287 | -81.69319 | 24706 ft | 444 kts | 168° |
| 2026-04-30 02:25 | 28.12296 | -81.68470 | 24385 ft | 441 kts | 168° |
| 2026-04-30 02:25 | 28.09324 | -81.67646 | 24063 ft | 438 kts | 171° |
| 2026-04-30 02:25 | 28.06320 | -81.67214 | 23748 ft | 432 kts | 180° |
| 2026-04-30 02:26 | 28.03345 | -81.67347 | 23434 ft | 426 kts | 190° |
| 2026-04-30 02:26 | 28.00446 | -81.67941 | 23119 ft | 420 kts | 196° |
| 2026-04-30 02:26 | 27.97621 | -81.68752 | 22811 ft | 417 kts | 199° |
| 2026-04-30 02:26 | 27.94824 | -81.69617 | 22506 ft | 416 kts | 198° |
| 2026-04-30 02:27 | 27.92037 | -81.70447 | 22203 ft | 414 kts | 198° |
| 2026-04-30 02:27 | 27.89251 | -81.71261 | 21902 ft | 412 kts | 198° |
| 2026-04-30 02:27 | 27.86514 | -81.72052 | 21608 ft | 410 kts | 198° |
| 2026-04-30 02:27 | 27.83755 | -81.72847 | 21313 ft | 409 kts | 198° |
| 2026-04-30 02:28 | 27.81006 | -81.73637 | 21013 ft | 407 kts | 197° |
| 2026-04-30 02:28 | 27.78271 | -81.74422 | 20719 ft | 405 kts | 197° |
| 2026-04-30 02:28 | 27.75549 | -81.75203 | 20425 ft | 403 kts | 197° |
| 2026-04-30 02:28 | 27.72830 | -81.75951 | 20133 ft | 402 kts | 195° |
| 2026-04-30 02:29 | 27.70071 | -81.76446 | 19843 ft | 402 kts | 189° |
| 2026-04-30 02:29 | 27.67272 | -81.76613 | 19547 ft | 402 kts | 182° |
| 2026-04-30 02:29 | 27.64482 | -81.76495 | 19256 ft | 401 kts | 179° |
| 2026-04-30 02:29 | 27.61698 | -81.76341 | 18964 ft | 400 kts | 176° |
| 2026-04-30 02:30 | 27.58957 | -81.75850 | 18677 ft | 399 kts | 168° |
| 2026-04-30 02:30 | 27.56306 | -81.74946 | 18384 ft | 397 kts | 161° |
| 2026-04-30 02:30 | 27.53755 | -81.73755 | 18094 ft | 396 kts | 156° |
| 2026-04-30 02:30 | 27.51262 | -81.72475 | 17806 ft | 394 kts | 156° |
| 2026-04-30 02:31 | 27.48758 | -81.71224 | 17519 ft | 392 kts | 157° |
| 2026-04-30 02:31 | 27.46259 | -81.70005 | 17225 ft | 390 kts | 157° |
| 2026-04-30 02:31 | 27.43777 | -81.68802 | 16938 ft | 388 kts | 157° |
| 2026-04-30 02:31 | 27.41299 | -81.67606 | 16654 ft | 386 kts | 157° |
| 2026-04-30 02:32 | 27.38836 | -81.66419 | 16374 ft | 385 kts | 157° |
| 2026-04-30 02:32 | 27.36379 | -81.65236 | 16097 ft | 383 kts | 157° |
| 2026-04-30 02:32 | 27.33941 | -81.64057 | 15825 ft | 382 kts | 157° |
| 2026-04-30 02:32 | 27.31483 | -81.62871 | 15318 ft | 385 kts | 157° |
| 2026-04-30 02:33 | 27.29026 | -81.61689 | 14878 ft | 382 kts | 157° |
| 2026-04-30 02:33 | 27.26598 | -81.60521 | 14449 ft | 377 kts | 157° |
| 2026-04-30 02:33 | 27.24198 | -81.59368 | 14027 ft | 372 kts | 157° |
| 2026-04-30 02:33 | 27.21826 | -81.58231 | 13615 ft | 369 kts | 157° |
| 2026-04-30 02:34 | 27.19475 | -81.57101 | 13208 ft | 365 kts | 157° |
| 2026-04-30 02:34 | 27.17150 | -81.55986 | 12803 ft | 362 kts | 157° |
| 2026-04-30 02:34 | 27.14829 | -81.54874 | 12401 ft | 360 kts | 157° |
| 2026-04-30 02:34 | 27.12546 | -81.53779 | 12003 ft | 354 kts | 157° |
| 2026-04-30 02:35 | 27.10326 | -81.52711 | 11618 ft | 347 kts | 157° |
| 2026-04-30 02:35 | 27.08143 | -81.51664 | 11231 ft | 331 kts | 157° |
| 2026-04-30 02:35 | 27.06069 | -81.50668 | 10873 ft | 312 kts | 157° |
| 2026-04-30 02:35 | 27.04109 | -81.49729 | 10536 ft | 307 kts | 157° |
| 2026-04-30 02:36 | 27.02161 | -81.48794 | 10200 ft | 302 kts | 156° |
| 2026-04-30 02:36 | 27.00255 | -81.47875 | 9988 ft | 297 kts | 156° |
| 2026-04-30 02:36 | 26.98365 | -81.46924 | 9571 ft | 296 kts | 155° |
| 2026-04-30 02:36 | 26.96515 | -81.45993 | 9212 ft | 284 kts | 155° |
| 2026-04-30 02:37 | 26.94762 | -81.45114 | 8857 ft | 270 kts | 155° |
| 2026-04-30 02:37 | 26.93083 | -81.44272 | 8494 ft | 258 kts | 155° |
| 2026-04-30 02:37 | 26.91470 | -81.43466 | 8121 ft | 250 kts | 155° |
| 2026-04-30 02:37 | 26.89884 | -81.42673 | 7772 ft | 251 kts | 155° |
| 2026-04-30 02:38 | 26.88297 | -81.41880 | 7447 ft | 250 kts | 155° |
| 2026-04-30 02:38 | 26.86703 | -81.41085 | 7079 ft | 250 kts | 155° |
| 2026-04-30 02:38 | 26.85116 | -81.40293 | 6703 ft | 248 kts | 155° |
| 2026-04-30 02:38 | 26.83484 | -81.39718 | 6311 ft | 246 kts | 175° |
| 2026-04-30 02:39 | 26.81872 | -81.40161 | 6015 ft | 240 kts | 209° |
| 2026-04-30 02:39 | 26.80566 | -81.41301 | 5804 ft | 237 kts | 221° |
| 2026-04-30 02:39 | 26.79386 | -81.42585 | 5554 ft | 235 kts | 225° |
| 2026-04-30 02:39 | 26.78259 | -81.43881 | 5316 ft | 232 kts | 225° |
| 2026-04-30 02:40 | 26.77123 | -81.45153 | 5081 ft | 230 kts | 224° |
| 2026-04-30 02:40 | 26.75982 | -81.46403 | 4857 ft | 229 kts | 224° |
| 2026-04-30 02:40 | 26.74840 | -81.47638 | 4632 ft | 228 kts | 223° |
| 2026-04-30 02:40 | 26.73699 | -81.48862 | 4416 ft | 227 kts | 223° |
| 2026-04-30 02:41 | 26.72562 | -81.50075 | 4205 ft | 225 kts | 223° |
| 2026-04-30 02:41 | 26.71429 | -81.51281 | 3992 ft | 224 kts | 223° |
| 2026-04-30 02:41 | 26.70304 | -81.52476 | 3782 ft | 222 kts | 223° |
| 2026-04-30 02:41 | 26.69181 | -81.53668 | 3565 ft | 221 kts | 223° |
| 2026-04-30 02:42 | 26.68098 | -81.54817 | 3343 ft | 209 kts | 223° |
| 2026-04-30 02:42 | 26.67077 | -81.55897 | 3174 ft | 202 kts | 224° |
| 2026-04-30 02:42 | 26.66068 | -81.56967 | 2966 ft | 198 kts | 224° |
| 2026-04-30 02:42 | 26.65063 | -81.58037 | 2747 ft | 196 kts | 225° |
| 2026-04-30 02:43 | 26.64186 | -81.59168 | 2546 ft | 195 kts | 232° |
| 2026-04-30 02:43 | 26.63396 | -81.60392 | 2355 ft | 192 kts | 235° |
| 2026-04-30 02:43 | 26.62653 | -81.61571 | 2154 ft | 180 kts | 235° |
| 2026-04-30 02:43 | 26.61951 | -81.62668 | 1975 ft | 167 kts | 234° |
| 2026-04-30 02:44 | 26.61282 | -81.63704 | 1795 ft | 161 kts | 234° |
| 2026-04-30 02:44 | 26.60636 | -81.64703 | 1634 ft | 156 kts | 234° |
| 2026-04-30 02:44 | 26.60006 | -81.65676 | 1482 ft | 152 kts | 234° |
| 2026-04-30 02:44 | 26.59401 | -81.66614 | 1466 ft | 146 kts | 235° |
| 2026-04-30 02:45 | 26.58813 | -81.67525 | 1430 ft | 145 kts | 235° |
| 2026-04-30 02:45 | 26.58221 | -81.68436 | 1323 ft | 144 kts | 235° |
| 2026-04-30 02:45 | 26.57625 | -81.69350 | 1212 ft | 148 kts | 235° |
| 2026-04-30 02:45 | 26.57023 | -81.70278 | 989 ft | 148 kts | 236° |
| 2026-04-30 02:46 | 26.56409 | -81.71236 | 725 ft | 151 kts | 232° |
| 2026-04-30 02:46 | 26.55799 | -81.72138 | 483 ft | 140 kts | 233° |
| 2026-04-30 02:46 | 26.55234 | -81.72993 | 282 ft | 135 kts | 237° |
| 2026-04-30 02:46 | 26.54713 | -81.73831 | 122 ft | 129 kts | 233° |
| 2026-04-30 02:47 | 26.54212 | -81.74629 | 41 ft | 116 kts | 236° |
| 2026-04-30 02:47 | 26.53786 | -81.75265 | 38 ft | 83 kts | 236° |
| 2026-04-30 02:47 | 26.53544 | -81.75627 | 38 ft | 32 kts | 243° |
| 2026-04-30 02:47 | 26.53513 | -81.75782 | 38 ft | 11 kts | 296° |
| 2026-04-30 02:48 | 26.53535 | -81.75798 | 38 ft | 0 kts | 346° |
| 2026-04-30 02:48 | 26.53542 | -81.75796 | 38 ft | 5 kts | 28° |
| 2026-04-30 02:49 | 26.53559 | -81.75795 | 38 ft | 5 kts | 327° |
| 2026-04-30 02:49 | 26.53553 | -81.75811 | 38 ft | 3 kts | 167° |
| 2026-04-30 02:49 | 26.53476 | -81.75751 | 38 ft | 23 kts | 108° |
| 2026-04-30 02:49 | 26.53480 | -81.75564 | 38 ft | 23 kts | 91° |
| 2026-04-30 02:50 | 26.53403 | -81.75441 | 38 ft | 26 kts | 144° |
| 2026-04-30 02:50 | 26.53229 | -81.75319 | 38 ft | 29 kts | 158° |
| 2026-04-30 02:50 | 26.53078 | -81.75351 | 38 ft | 19 kts | 209° |
| 2026-04-30 02:50 | 26.52984 | -81.75379 | 38 ft | 10 kts | 174° |
| 2026-04-30 02:51 | 26.52940 | -81.75355 | 38 ft | 12 kts | 152° |
| 2026-04-30 02:51 | 26.52876 | -81.75358 | 38 ft | 5 kts | 184° |
| 2026-04-30 02:51 | 26.52864 | -81.75356 | 38 ft | 5 kts | 171° |
| 2026-04-30 02:51 | 26.52830 | -81.75331 | 38 ft | 0 kts | 144° |